createdAt,value
2018-11-23T00:01:00.129Z,33.57
2018-11-23T00:06:16.136Z,30.23
2018-11-23T00:08:56.029Z,34.47
2018-11-23T00:11:29.859Z,32.93
2018-11-23T00:16:45.940Z,35.80
2018-11-23T00:19:19.770Z,34.27
2018-11-23T00:21:54.308Z,34.17
2018-11-23T00:27:09.692Z,36.50
2018-11-23T00:29:43.585Z,42.10
2018-11-23T00:34:57.728Z,38.20
2018-11-23T00:37:31.520Z,38.60
2018-11-23T00:40:05.365Z,36.63
2018-11-23T00:42:40.167Z,35.17
2018-11-23T00:47:56.683Z,36.97
2018-11-23T00:50:30.518Z,37.83
2018-11-23T00:53:04.385Z,40.67
2018-11-23T00:55:38.237Z,40.47
2018-11-23T01:01:02.240Z,43.30
2018-11-23T01:03:36.819Z,43.53
2018-11-23T01:09:01.301Z,46.13
2018-11-23T01:11:35.092Z,42.73
2018-11-23T01:14:09.072Z,42.93
2018-11-23T01:16:42.903Z,41.97
2018-11-23T01:19:17.473Z,44.23
2018-11-23T01:21:51.496Z,44.13
2018-11-23T01:24:25.353Z,44.87
2018-11-23T01:29:41.347Z,40.60
2018-11-23T01:32:15.913Z,42.93
2018-11-23T01:37:31.311Z,40.13
2018-11-23T01:40:05.145Z,43.63
2018-11-23T01:48:04.469Z,46.23
2018-11-23T01:50:38.592Z,51.03
2018-11-23T01:55:54.332Z,53.07
2018-11-23T01:58:28.888Z,52.63
2018-11-23T02:01:02.705Z,51.23
2018-11-23T02:03:36.529Z,51.13
2018-11-23T02:06:10.375Z,53.67
2018-11-23T02:15:39.329Z,59.20
2018-11-23T02:18:13.900Z,55.93
2018-11-23T02:20:47.720Z,56.50
2018-11-23T02:26:03.014Z,63.67
2018-11-23T02:28:36.856Z,63.10
2018-11-23T02:31:11.445Z,61.07
2018-11-23T02:36:27.289Z,64.13
2018-11-23T02:39:01.142Z,65.13
2018-11-23T02:41:34.957Z,66.60
2018-11-23T02:46:50.257Z,63.10
2018-11-23T02:49:24.083Z,68.53
2018-11-23T02:51:57.936Z,65.03
2018-11-23T02:57:13.266Z,67.93
2018-11-23T02:59:47.097Z,56.03
2018-11-23T03:02:20.947Z,60.33
2018-11-23T03:04:55.741Z,56.23
2018-11-23T03:10:13.510Z,54.03
2018-11-23T03:12:47.988Z,60.10
2018-11-23T03:15:22.264Z,57.63
2018-11-23T03:17:56.126Z,65.20
2018-11-23T03:20:29.984Z,62.30
2018-11-23T03:23:03.832Z,58.47
2018-11-23T03:25:37.668Z,57.63
2018-11-23T03:28:12.258Z,64.00
2018-11-23T03:30:46.204Z,62.80
2018-11-23T03:33:19.967Z,67.40
2018-11-23T03:35:53.781Z,56.77
2018-11-23T03:38:27.593Z,62.50
2018-11-23T03:41:01.501Z,59.60
2018-11-23T03:43:35.357Z,64.00
2018-11-23T03:46:09.222Z,63.37
2018-11-23T03:48:43.052Z,72.10
2018-11-23T03:51:17.684Z,68.13
2018-11-23T03:53:52.305Z,62.97
2018-11-23T03:56:26.833Z,57.30
2018-11-23T03:59:00.673Z,57.37
2018-11-23T04:01:34.526Z,58.10
2018-11-23T04:06:49.904Z,55.97
2018-11-23T04:09:23.726Z,64.67
2018-11-23T04:11:57.588Z,58.67
2018-11-23T04:17:27.560Z,60.13
2018-11-23T04:20:18.038Z,58.40
2018-11-23T04:22:54.720Z,58.73
2018-11-23T04:25:28.580Z,60.43
2018-11-23T04:28:02.697Z,62.97
2018-11-23T04:30:36.534Z,55.00
2018-11-23T04:33:10.357Z,52.27
2018-11-23T04:38:30.085Z,48.50
2018-11-23T04:41:04.668Z,47.20
2018-11-23T04:46:19.986Z,60.70
2018-11-23T04:48:53.757Z,56.03
2018-11-23T04:51:27.616Z,57.37
2018-11-23T04:56:43.693Z,58.63
2018-11-23T04:59:17.517Z,53.43
2018-11-23T05:01:51.399Z,59.50
2018-11-23T05:04:25.242Z,58.87
2018-11-23T05:06:59.124Z,51.20
2018-11-23T05:12:14.406Z,64.50
2018-11-23T05:17:28.414Z,62.70
2018-11-23T05:20:02.981Z,58.10
2018-11-23T05:25:19.625Z,58.53
2018-11-23T05:27:53.765Z,54.37
2018-11-23T05:30:28.784Z,53.10
2018-11-23T05:33:02.693Z,52.70
2018-11-23T05:35:36.517Z,54.37
2018-11-23T05:38:11.083Z,55.43
2018-11-23T05:40:45.232Z,49.80
2018-11-23T05:43:19.049Z,55.83
2018-11-23T05:48:34.701Z,58.40
2018-11-23T05:51:08.509Z,67.93
2018-11-23T05:53:42.653Z,60.80
2018-11-23T05:56:17.337Z,60.47
2018-11-23T05:58:51.173Z,56.40
2018-11-23T06:01:24.996Z,56.53
2018-11-23T06:03:58.796Z,56.27
2018-11-23T06:06:32.635Z,53.57
2018-11-23T06:09:09.296Z,54.73
2018-11-23T06:11:44.563Z,56.63
2018-11-23T06:14:19.165Z,57.27
2018-11-23T06:16:53.393Z,50.97
2018-11-23T06:19:27.197Z,71.87
2018-11-23T06:22:01.694Z,78.13
2018-11-23T06:24:35.953Z,77.53
2018-11-23T06:27:10.522Z,86.23
2018-11-23T06:29:44.471Z,85.90
2018-11-23T06:33:15.257Z,99.90
2018-11-23T06:38:30.881Z,89.70
2018-11-23T06:41:10.191Z,88.17
2018-11-23T06:43:38.598Z,93.00
2018-11-23T06:46:13.150Z,76.17
2018-11-23T06:56:53.684Z,52.77
2018-11-23T06:59:28.228Z,72.97
2018-11-23T07:02:02.069Z,65.23
2018-11-23T07:07:17.516Z,71.93
2018-11-23T07:09:52.184Z,55.90
2018-11-23T07:15:11.367Z,44.73
2018-11-23T07:17:45.201Z,37.87
2018-11-23T07:20:19.069Z,42.67
2018-11-23T07:22:52.922Z,49.83
2018-11-23T07:25:26.740Z,51.47
2018-11-23T07:28:01.278Z,54.40
2018-11-23T07:35:57.535Z,47.57
2018-11-23T07:38:32.100Z,41.40
2018-11-23T07:42:01.601Z,37.70
2018-11-23T07:47:22.103Z,36.37
2018-11-23T07:49:55.929Z,34.13
2018-11-23T07:52:29.857Z,31.00
2018-11-23T07:55:04.041Z,32.50
2018-11-23T07:57:37.853Z,32.47
2018-11-23T08:00:20.190Z,30.17
2018-11-23T08:02:54.015Z,27.63
2018-11-23T08:05:27.845Z,32.43
2018-11-23T08:08:02.764Z,25.47
2018-11-23T08:15:59.873Z,26.80
2018-11-23T08:18:34.400Z,31.07
2018-11-23T08:21:08.318Z,25.32
2018-11-23T08:26:21.773Z,26.40
2018-11-23T08:28:55.605Z,25.27
2018-11-23T08:31:29.479Z,24.12
2018-11-23T08:36:55.614Z,27.10
2018-11-23T08:39:29.444Z,24.50
2018-11-23T08:44:44.801Z,26.45
2018-11-23T08:47:19.741Z,24.05
2018-11-23T08:55:18.156Z,26.82
2018-11-23T08:57:53.145Z,29.15
2018-11-23T09:00:30.041Z,28.90
2018-11-23T09:05:46.180Z,25.65
2018-11-23T09:08:20.821Z,26.85
2018-11-23T09:10:54.702Z,26.95
2018-11-23T09:16:10.397Z,24.95
2018-11-23T09:18:44.261Z,25.40
2018-11-23T09:21:18.158Z,24.70
2018-11-23T09:26:40.808Z,23.50
2018-11-23T09:29:14.704Z,28.50
2018-11-23T09:31:49.337Z,25.68
2018-11-23T09:37:09.904Z,26.68
2018-11-23T09:39:43.742Z,23.27
2018-11-23T09:42:29.449Z,21.65
2018-11-23T09:50:31.939Z,23.83
2018-11-23T09:55:46.540Z,20.32
2018-11-23T09:58:21.164Z,21.90
2018-11-23T10:00:55.910Z,24.00
2018-11-23T10:06:11.214Z,17.82
2018-11-23T10:08:45.061Z,20.37
2018-11-23T10:11:19.715Z,18.02
2018-11-23T10:16:35.816Z,17.05
2018-11-23T10:27:18.784Z,15.63
2018-11-23T10:29:55.340Z,18.67
2018-11-23T10:35:10.265Z,15.95
2018-11-23T10:37:45.574Z,16.02
2018-11-23T10:40:20.809Z,16.50
2018-11-23T10:45:35.160Z,17.20
2018-11-23T10:48:10.009Z,19.42
2018-11-23T10:50:43.988Z,16.70
2018-11-23T10:56:00.062Z,17.85
2018-11-23T10:58:34.612Z,17.02
2018-11-23T11:01:27.353Z,19.45
2018-11-23T11:07:09.002Z,17.87
2018-11-23T11:09:42.801Z,14.05
2018-11-23T11:14:58.616Z,13.10
2018-11-23T11:17:32.442Z,11.57
2018-11-23T11:20:06.376Z,10.28
2018-11-23T11:22:41.001Z,9.30
2018-11-23T11:25:15.617Z,9.85
2018-11-23T11:27:50.153Z,9.63
2018-11-23T11:41:18.969Z,12.37
2018-11-23T11:46:49.661Z,10.25
2018-11-23T11:49:24.212Z,10.95
2018-11-23T11:51:58.076Z,10.43
2018-11-23T11:57:13.377Z,13.45
2018-11-23T11:59:47.349Z,15.93
2018-11-23T12:05:01.106Z,10.95
2018-11-23T12:07:34.932Z,9.03
2018-11-23T12:10:13.012Z,10.88
2018-11-23T12:12:46.841Z,7.15
2018-11-23T12:18:02.948Z,5.47
2018-11-23T12:20:36.892Z,5.53
2018-11-23T12:23:11.451Z,5.47
2018-11-23T12:25:45.316Z,4.85
2018-11-23T12:31:00.972Z,5.40
2018-11-23T12:33:34.823Z,4.95
2018-11-23T12:36:08.693Z,5.08
2018-11-23T12:38:43.173Z,5.08
2018-11-23T12:41:17.134Z,5.28
2018-11-23T12:46:38.669Z,4.50
2018-11-23T12:49:12.996Z,4.58
2018-11-23T12:51:46.833Z,4.17
2018-11-23T12:54:20.637Z,4.33
2018-11-23T12:59:36.805Z,4.15
2018-11-23T13:02:10.732Z,5.65
2018-11-23T13:04:44.649Z,5.53
2018-11-23T13:07:18.516Z,5.78
2018-11-23T13:09:52.392Z,5.28
2018-11-23T13:12:26.924Z,4.80
2018-11-23T13:15:01.460Z,6.35
2018-11-23T13:17:35.325Z,4.97
2018-11-23T13:20:14.922Z,5.05
2018-11-23T13:22:48.720Z,5.20
2018-11-23T13:25:27.489Z,6.97
2018-11-23T13:28:01.822Z,4.95
2018-11-23T13:30:36.738Z,6.70
2018-11-23T13:33:10.538Z,5.45
2018-11-23T13:35:44.342Z,7.47
2018-11-23T13:38:18.177Z,5.83
2018-11-23T13:40:52.780Z,6.22
2018-11-23T13:46:06.095Z,9.78
2018-11-23T13:48:39.923Z,8.38
2018-11-23T13:51:13.821Z,6.42
2018-11-23T13:53:47.728Z,5.95
2018-11-23T13:56:21.570Z,4.55
2018-11-23T13:58:55.376Z,4.55
2018-11-23T14:01:29.200Z,5.33
2018-11-23T14:04:03.769Z,5.08
2018-11-23T14:06:37.616Z,4.30
2018-11-23T14:09:12.961Z,5.83
2018-11-23T14:11:46.792Z,4.55
2018-11-23T14:17:03.625Z,28.55
2018-11-23T14:19:38.163Z,7.12
2018-11-23T14:22:12.085Z,5.85
2018-11-23T14:24:46.195Z,6.12
2018-11-23T14:30:01.577Z,5.58
2018-11-23T14:38:03.303Z,5.30
2018-11-23T14:40:37.149Z,5.10
2018-11-23T14:45:57.669Z,5.85
2018-11-23T14:48:32.222Z,7.12
2018-11-23T14:51:06.382Z,7.53
2018-11-23T14:53:41.023Z,8.00
2018-11-23T14:56:15.148Z,7.80
2018-11-23T14:58:49.997Z,8.35
2018-11-23T15:01:23.824Z,7.72
2018-11-23T15:03:58.029Z,6.62
2018-11-23T15:06:31.829Z,7.10
2018-11-23T15:09:06.342Z,9.15
2018-11-23T15:11:41.030Z,7.30
2018-11-23T15:14:14.869Z,9.03
2018-11-23T15:16:49.400Z,10.35
2018-11-23T15:19:23.469Z,9.37
2018-11-23T15:21:57.469Z,9.10
2018-11-23T15:24:31.353Z,10.55
2018-11-23T15:27:05.185Z,12.23
2018-11-23T15:29:39.018Z,10.03
2018-11-23T15:32:14.357Z,13.72
2018-11-23T15:37:32.237Z,12.25
2018-11-23T15:40:08.506Z,12.13
2018-11-23T15:45:24.861Z,13.13
2018-11-23T15:47:59.404Z,12.25
2018-11-23T15:50:37.411Z,12.33
2018-11-23T15:55:59.596Z,14.27
2018-11-23T15:58:33.509Z,15.60
2018-11-23T16:01:07.565Z,14.67
2018-11-23T16:06:22.960Z,15.25
2018-11-23T16:08:56.833Z,14.38
2018-11-23T16:11:30.764Z,12.33
2018-11-23T16:16:46.139Z,13.57
2018-11-23T16:19:20.713Z,14.13
2018-11-23T16:21:54.580Z,13.70
2018-11-23T16:27:10.757Z,15.35
2018-11-23T16:29:44.840Z,14.80
2018-11-23T16:35:00.226Z,18.67
2018-11-23T16:37:34.081Z,18.37
2018-11-23T16:40:12.663Z,20.02
2018-11-23T16:45:29.364Z,21.73
2018-11-23T16:48:04.604Z,21.30
2018-11-23T16:50:38.540Z,25.10
2018-11-23T16:55:54.658Z,24.83
2018-11-23T16:58:28.518Z,23.93
2018-11-23T17:01:02.455Z,22.50
2018-11-23T17:03:36.297Z,26.37
2018-11-23T17:08:51.625Z,21.53
2018-11-23T17:11:25.629Z,18.43
2018-11-23T17:16:40.980Z,17.47
2018-11-23T17:19:14.824Z,20.33
2018-11-23T17:21:49.394Z,20.40
2018-11-23T17:27:04.929Z,18.70
2018-11-23T17:29:38.764Z,20.57
2018-11-23T17:34:54.167Z,23.77
2018-11-23T17:37:27.975Z,21.27
2018-11-23T17:40:01.833Z,20.80
2018-11-23T17:45:29.088Z,25.70
2018-11-23T17:48:03.294Z,22.37
2018-11-23T17:50:38.046Z,17.87
2018-11-23T17:53:11.866Z,21.07
2018-11-23T17:55:45.721Z,18.43
2018-11-23T18:01:01.755Z,16.57
2018-11-23T18:06:38.161Z,18.73
2018-11-23T18:09:16.063Z,19.00
2018-11-23T18:11:49.887Z,23.27
2018-11-23T18:14:23.688Z,41.83
2018-11-23T18:16:57.514Z,28.53
2018-11-23T18:19:32.041Z,22.00
2018-11-23T18:22:06.644Z,23.87
2018-11-23T18:24:40.447Z,22.57
2018-11-23T18:27:15.069Z,20.70
2018-11-23T18:29:48.903Z,20.97
2018-11-23T18:32:23.587Z,23.07
2018-11-23T18:34:58.262Z,21.50
2018-11-23T18:37:33.166Z,22.50
2018-11-23T18:40:10.271Z,18.77
2018-11-23T18:45:26.207Z,20.07
2018-11-23T18:48:00.010Z,20.73
2018-11-23T18:50:33.865Z,21.10
2018-11-23T18:55:49.208Z,20.47
2018-11-23T18:58:23.001Z,19.07
2018-11-23T19:00:57.291Z,21.17
2018-11-23T19:03:31.912Z,22.30
2018-11-23T19:08:47.329Z,21.03
2018-11-23T19:11:21.192Z,22.03
2018-11-23T19:13:55.330Z,17.23
2018-11-23T19:16:30.790Z,20.80
2018-11-23T19:19:05.374Z,21.83
2018-11-23T19:21:39.489Z,21.53
2018-11-23T19:24:13.333Z,21.00
2018-11-23T19:26:47.264Z,16.60
2018-11-23T19:29:21.524Z,19.33
2018-11-23T19:31:55.357Z,19.83
2018-11-23T19:34:29.362Z,19.47
2018-11-23T19:37:03.249Z,18.23
2018-11-23T19:39:37.081Z,19.17
2018-11-23T19:42:10.846Z,18.57
2018-11-23T19:47:26.074Z,15.93
2018-11-23T19:49:59.875Z,20.17
2018-11-23T19:52:35.212Z,17.60
2018-11-23T19:55:09.589Z,17.00
2018-11-23T20:00:29.948Z,18.27
2018-11-23T20:03:03.781Z,20.23
2018-11-23T20:08:20.780Z,20.93
2018-11-23T20:10:55.542Z,16.17
2018-11-23T20:13:30.101Z,19.17
2018-11-23T20:16:04.121Z,18.13
2018-11-23T20:18:37.973Z,18.80
2018-11-23T20:21:12.104Z,18.97
2018-11-23T20:23:45.999Z,18.67
2018-11-23T20:26:19.904Z,17.00
2018-11-23T20:28:53.729Z,18.30
2018-11-23T20:31:27.550Z,18.17
2018-11-23T20:34:01.433Z,20.00
2018-11-23T20:36:36.115Z,18.17
2018-11-23T20:39:11.843Z,19.90
2018-11-23T20:41:46.066Z,20.47
2018-11-23T20:47:02.561Z,17.93
2018-11-23T20:49:37.143Z,19.77
2018-11-23T20:52:10.993Z,20.07
2018-11-23T20:57:27.800Z,19.83
2018-11-23T21:00:01.759Z,19.03
2018-11-23T21:05:21.641Z,17.73
2018-11-23T21:07:56.216Z,16.57
2018-11-23T21:10:30.323Z,18.47
2018-11-23T21:15:50.848Z,20.53
2018-11-23T21:18:24.687Z,19.57
2018-11-23T21:20:59.267Z,21.27
2018-11-23T21:26:14.845Z,17.97
2018-11-23T21:28:48.960Z,18.30
2018-11-23T21:31:22.846Z,20.63
2018-11-23T21:33:56.724Z,18.50
2018-11-23T21:36:30.593Z,18.97
2018-11-23T21:39:04.454Z,17.13
2018-11-23T21:41:39.478Z,16.80
2018-11-23T21:46:55.147Z,19.13
2018-11-23T21:49:28.940Z,20.37
2018-11-23T21:52:02.832Z,18.57
2018-11-23T21:54:36.704Z,18.07
2018-11-23T21:57:11.325Z,18.83
2018-11-23T21:59:45.150Z,19.40
2018-11-23T22:05:06.000Z,18.23
2018-11-23T22:07:39.989Z,22.63
2018-11-23T22:10:15.824Z,23.70
2018-11-23T22:15:31.145Z,15.93
2018-11-23T22:18:05.089Z,18.30
2018-11-23T22:20:39.240Z,17.00
2018-11-23T22:23:13.875Z,17.90
2018-11-23T22:25:48.504Z,17.00
2018-11-23T22:31:04.895Z,17.17
2018-11-23T22:33:38.997Z,14.57
2018-11-23T22:36:13.137Z,15.43
2018-11-23T22:41:33.941Z,15.03
2018-11-23T22:46:49.674Z,14.93
2018-11-23T22:49:23.535Z,11.47
2018-11-23T22:51:57.373Z,12.57
2018-11-23T22:57:15.956Z,11.90
2018-11-23T22:59:50.528Z,10.60
2018-11-23T23:05:06.820Z,11.13
2018-11-23T23:07:40.641Z,10.80
2018-11-23T23:10:14.727Z,10.73
2018-11-23T23:12:48.748Z,11.40
2018-11-23T23:15:22.950Z,10.60
2018-11-23T23:17:57.455Z,9.57
2018-11-23T23:20:31.316Z,10.53
2018-11-23T23:23:05.124Z,8.37
2018-11-23T23:25:38.912Z,11.40
2018-11-23T23:28:13.126Z,9.93
2018-11-23T23:30:47.841Z,9.63
2018-11-23T23:33:21.960Z,9.50
2018-11-23T23:35:55.796Z,8.70
2018-11-23T23:41:11.125Z,9.30
2018-11-23T23:43:44.997Z,7.40
2018-11-23T23:46:19.145Z,9.77
2018-11-23T23:48:53.289Z,9.33
2018-11-23T23:51:27.175Z,9.57
2018-11-23T23:54:00.957Z,7.83
2018-11-23T23:56:35.561Z,8.80
2018-11-23T23:59:09.389Z,7.70
